Time;durP1;ratioP1;P1;durP2;ratioP2;P2;SDS_P1;SDS_P2;PMS_P1;PMS_P2;Temp;Humidity;BMP_temperature;BMP_pressure;BME280_temperature;BME280_humidity;BME280_pressure;Samples;Min_cycle;Max_cycle;Signal;HPM_P1;HPM_P2
2021/01/05 00:00:03;;;;;;;30.8;13.2;;;;;;;-0.86;81.63672;94412.22;;;;
2021/01/05 00:01:05;;;;;;;30.8;13.2;;;;;;;-0.86;81.63672;94412.22;;;;
2021/01/05 00:02:05;;;;;;;30.8;13.2;;;;;;;-0.86;81.63672;94412.22;;;;
2021/01/05 00:03:06;;;;;;;30.8;13.2;;;;;;;-0.86;81.63672;94412.22;;;;
2021/01/05 00:04:06;;;;;;;30.8;13.2;;;;;;;-0.86;81.63672;94412.22;;;;
2021/01/05 00:05:07;;;;;;;30.8;13.2;;;;;;;-0.86;81.63672;94412.22;;;;
2021/01/05 00:06:09;;;;;;;31.05;14;;;;;;;-0.9;81.49609;94412.16;;;;
2021/01/05 00:07:09;;;;;;;31.05;14;;;;;;;-0.9;81.49609;94412.16;;;;
2021/01/05 00:08:09;;;;;;;31.05;14;;;;;;;-0.9;81.49609;94412.16;;;;
2021/01/05 00:09:10;;;;;;;31.05;14;;;;;;;-0.9;81.49609;94412.16;;;;
2021/01/05 00:10:11;;;;;;;31.05;14;;;;;;;-0.9;81.49609;94412.16;;;;
2021/01/05 00:11:11;;;;;;;31.05;14;;;;;;;-0.9;81.49609;94412.16;;;;
2021/01/05 00:12:12;;;;;;;31.05;14;;;;;;;-0.9;81.49609;94412.16;;;;
2021/01/05 00:13:15;;;;;;;31.05;14;;;;;;;-0.9;81.49609;94412.16;;;;
2021/01/05 00:14:16;;;;;;;31.05;14;;;;;;;-0.9;81.49609;94412.16;;;;
2021/01/05 00:15:16;;;;;;;31.05;14;;;;;;;-0.9;81.49609;94412.16;;;;
2021/01/05 00:16:18;;;;;;;31.05;14;;;;;;;-0.9;81.49609;94412.16;;;;
2021/01/05 00:17:18;;;;;;;30.2;13.75;;;;;;;-0.85;81.64063;94419.06;;;;
2021/01/05 00:18:20;;;;;;;30.2;13.75;;;;;;;-0.85;81.64063;94419.06;;;;
2021/01/05 00:19:21;;;;;;;30.2;13.75;;;;;;;-0.85;81.64063;94419.06;;;;
2021/01/05 00:20:22;;;;;;;30.2;13.75;;;;;;;-0.85;81.64063;94419.06;;;;
2021/01/05 00:21:25;;;;;;;30.2;13.75;;;;;;;-0.85;81.64063;94419.06;;;;
2021/01/05 00:22:26;;;;;;;30.2;13.75;;;;;;;-0.85;81.64063;94419.06;;;;
2021/01/05 00:23:26;;;;;;;30.2;13.75;;;;;;;-0.85;81.64063;94419.06;;;;
2021/01/05 00:24:27;;;;;;;30.2;13.75;;;;;;;-0.85;81.64063;94419.06;;;;
2021/01/05 00:25:28;;;;;;;30.2;13.75;;;;;;;-0.85;81.64063;94419.06;;;;
2021/01/05 00:26:29;;;;;;;30.2;13.75;;;;;;;-0.85;81.64063;94419.06;;;;
2021/01/05 00:27:29;;;;;;;32.1;14.2;;;;;;;-0.79;81.43359;94420.11;;;;
2021/01/05 00:28:30;;;;;;;32.1;14.2;;;;;;;-0.79;81.43359;94420.11;;;;
2021/01/05 00:29:30;;;;;;;32.1;14.2;;;;;;;-0.79;81.43359;94420.11;;;;
2021/01/05 00:30:32;;;;;;;32.1;14.2;;;;;;;-0.79;81.43359;94420.11;;;;
2021/01/05 00:31:32;;;;;;;32.1;14.2;;;;;;;-0.79;81.43359;94420.11;;;;
2021/01/05 00:32:33;;;;;;;32.1;14.2;;;;;;;-0.79;81.43359;94420.11;;;;
2021/01/05 00:33:34;;;;;;;32.1;14.2;;;;;;;-0.79;81.43359;94420.11;;;;
2021/01/05 00:34:34;;;;;;;32.1;14.2;;;;;;;-0.79;81.43359;94420.11;;;;
2021/01/05 00:35:35;;;;;;;32.1;14.2;;;;;;;-0.79;81.43359;94420.11;;;;
2021/01/05 00:36:39;;;;;;;32.1;14.2;;;;;;;-0.79;81.43359;94420.11;;;;
2021/01/05 00:37:39;;;;;;;32.1;14.2;;;;;;;-0.79;81.43359;94420.11;;;;
2021/01/05 00:38:40;;;;;;;32.75;14;;;;;;;-0.76;81.43848;94426.39;;;;
2021/01/05 00:39:40;;;;;;;32.75;14;;;;;;;-0.76;81.43848;94426.39;;;;
2021/01/05 00:40:41;;;;;;;32.75;14;;;;;;;-0.76;81.43848;94426.39;;;;
2021/01/05 00:41:41;;;;;;;32.75;14;;;;;;;-0.76;81.43848;94426.39;;;;
2021/01/05 00:42:42;;;;;;;32.75;14;;;;;;;-0.76;81.43848;94426.39;;;;
2021/01/05 00:43:43;;;;;;;32.75;14;;;;;;;-0.76;81.43848;94426.39;;;;
2021/01/05 00:44:44;;;;;;;32.75;14;;;;;;;-0.76;81.43848;94426.39;;;;
2021/01/05 00:45:44;;;;;;;32.75;14;;;;;;;-0.76;81.43848;94426.39;;;;
2021/01/05 00:46:44;;;;;;;32.75;14;;;;;;;-0.76;81.43848;94426.39;;;;
2021/01/05 00:47:45;;;;;;;32.75;14;;;;;;;-0.76;81.43848;94426.39;;;;
2021/01/05 00:48:45;;;;;;;28.85;13.7;;;;;;;-0.76;81.41992;94424.14;;;;
2021/01/05 00:49:46;;;;;;;28.85;13.7;;;;;;;-0.76;81.41992;94424.14;;;;
2021/01/05 00:50:47;;;;;;;28.85;13.7;;;;;;;-0.76;81.41992;94424.14;;;;
2021/01/05 00:51:47;;;;;;;28.85;13.7;;;;;;;-0.76;81.41992;94424.14;;;;
2021/01/05 00:52:48;;;;;;;28.85;13.7;;;;;;;-0.76;81.41992;94424.14;;;;
2021/01/05 00:53:49;;;;;;;28.85;13.7;;;;;;;-0.76;81.41992;94424.14;;;;
2021/01/05 00:54:49;;;;;;;28.85;13.7;;;;;;;-0.76;81.41992;94424.14;;;;
2021/01/05 00:55:49;;;;;;;28.85;13.7;;;;;;;-0.76;81.41992;94424.14;;;;
2021/01/05 00:56:50;;;;;;;28.85;13.7;;;;;;;-0.76;81.41992;94424.14;;;;
2021/01/05 00:58:00;;;;;;;28.85;13.7;;;;;;;-0.76;81.41992;94424.14;;;;
2021/01/05 00:59:00;;;;;;;28.85;13.7;;;;;;;-0.76;81.41992;94424.14;;;;
2021/01/05 01:00:01;;;;;;;29.9;13.25;;;;;;;-0.76;81.39648;94443.19;;;;
2021/01/05 01:01:05;;;;;;;29.9;13.25;;;;;;;-0.76;81.39648;94443.19;;;;
2021/01/05 01:02:06;;;;;;;29.9;13.25;;;;;;;-0.76;81.39648;94443.19;;;;
2021/01/05 01:03:07;;;;;;;29.9;13.25;;;;;;;-0.76;81.39648;94443.19;;;;
2021/01/05 01:04:07;;;;;;;29.9;13.25;;;;;;;-0.76;81.39648;94443.19;;;;
2021/01/05 01:05:08;;;;;;;29.9;13.25;;;;;;;-0.76;81.39648;94443.19;;;;
2021/01/05 01:06:09;;;;;;;29.9;13.25;;;;;;;-0.76;81.39648;94443.19;;;;
2021/01/05 01:07:10;;;;;;;29.9;13.25;;;;;;;-0.76;81.39648;94443.19;;;;
2021/01/05 01:08:10;;;;;;;29.9;13.25;;;;;;;-0.76;81.39648;94443.19;;;;
2021/01/05 01:09:12;;;;;;;29.9;13.25;;;;;;;-0.76;81.39648;94443.19;;;;
2021/01/05 01:10:12;;;;;;;32.89999;15.05;;;;;;;-0.86;81.44141;94445.23;;;;
2021/01/05 01:11:13;;;;;;;32.89999;15.05;;;;;;;-0.86;81.44141;94445.23;;;;
2021/01/05 01:12:15;;;;;;;32.89999;15.05;;;;;;;-0.86;81.44141;94445.23;;;;
2021/01/05 01:13:19;;;;;;;32.89999;15.05;;;;;;;-0.86;81.44141;94445.23;;;;
2021/01/05 01:14:19;;;;;;;32.89999;15.05;;;;;;;-0.86;81.44141;94445.23;;;;
2021/01/05 01:15:20;;;;;;;32.89999;15.05;;;;;;;-0.86;81.44141;94445.23;;;;
2021/01/05 01:16:20;;;;;;;32.89999;15.05;;;;;;;-0.86;81.44141;94445.23;;;;
2021/01/05 01:17:21;;;;;;;32.89999;15.05;;;;;;;-0.86;81.44141;94445.23;;;;
2021/01/05 01:18:24;;;;;;;32.89999;15.05;;;;;;;-0.86;81.44141;94445.23;;;;
2021/01/05 01:19:24;;;;;;;32.89999;15.05;;;;;;;-0.86;81.44141;94445.23;;;;
2021/01/05 01:20:25;;;;;;;32.89999;15.05;;;;;;;-0.86;81.44141;94445.23;;;;
2021/01/05 01:21:26;;;;;;;32.15;14.8;;;;;;;-0.92;81.69043;94438.01;;;;
2021/01/05 01:22:26;;;;;;;32.15;14.8;;;;;;;-0.92;81.69043;94438.01;;;;
2021/01/05 01:23:27;;;;;;;32.15;14.8;;;;;;;-0.92;81.69043;94438.01;;;;
2021/01/05 01:24:27;;;;;;;32.15;14.8;;;;;;;-0.92;81.69043;94438.01;;;;
2021/01/05 01:25:28;;;;;;;32.15;14.8;;;;;;;-0.92;81.69043;94438.01;;;;
2021/01/05 01:26:28;;;;;;;32.15;14.8;;;;;;;-0.92;81.69043;94438.01;;;;
2021/01/05 01:27:28;;;;;;;32.15;14.8;;;;;;;-0.92;81.69043;94438.01;;;;
2021/01/05 01:28:29;;;;;;;32.15;14.8;;;;;;;-0.92;81.69043;94438.01;;;;
2021/01/05 01:29:29;;;;;;;32.15;14.8;;;;;;;-0.92;81.69043;94438.01;;;;
2021/01/05 01:30:30;;;;;;;32.15;14.8;;;;;;;-0.92;81.69043;94438.01;;;;
2021/01/05 01:31:30;;;;;;;36.05001;14.7;;;;;;;-0.94;81.7998;94438.31;;;;
2021/01/05 01:32:32;;;;;;;36.05001;14.7;;;;;;;-0.94;81.7998;94438.31;;;;
2021/01/05 01:33:33;;;;;;;36.05001;14.7;;;;;;;-0.94;81.7998;94438.31;;;;
2021/01/05 01:34:33;;;;;;;36.05001;14.7;;;;;;;-0.94;81.7998;94438.31;;;;
2021/01/05 01:35:34;;;;;;;36.05001;14.7;;;;;;;-0.94;81.7998;94438.31;;;;
2021/01/05 01:36:34;;;;;;;36.05001;14.7;;;;;;;-0.94;81.7998;94438.31;;;;
2021/01/05 01:37:35;;;;;;;36.05001;14.7;;;;;;;-0.94;81.7998;94438.31;;;;
2021/01/05 01:38:36;;;;;;;36.05001;14.7;;;;;;;-0.94;81.7998;94438.31;;;;
2021/01/05 01:39:37;;;;;;;36.05001;14.7;;;;;;;-0.94;81.7998;94438.31;;;;
2021/01/05 01:40:40;;;;;;;36.05001;14.7;;;;;;;-0.94;81.7998;94438.31;;;;
2021/01/05 01:41:43;;;;;;;36.05001;14.7;;;;;;;-0.94;81.7998;94438.31;;;;
2021/01/05 01:42:43;;;;;;;30.8;14.35;;;;;;;-0.93;81.84082;94421.89;;;;
2021/01/05 01:43:44;;;;;;;30.8;14.35;;;;;;;-0.93;81.84082;94421.89;;;;
2021/01/05 01:44:44;;;;;;;30.8;14.35;;;;;;;-0.93;81.84082;94421.89;;;;
2021/01/05 01:45:47;;;;;;;30.8;14.35;;;;;;;-0.93;81.84082;94421.89;;;;
2021/01/05 01:46:47;;;;;;;30.8;14.35;;;;;;;-0.93;81.84082;94421.89;;;;
2021/01/05 01:47:50;;;;;;;30.8;14.35;;;;;;;-0.93;81.84082;94421.89;;;;
2021/01/05 01:48:51;;;;;;;30.8;14.35;;;;;;;-0.93;81.84082;94421.89;;;;
2021/01/05 01:49:53;;;;;;;30.8;14.35;;;;;;;-0.93;81.84082;94421.89;;;;
2021/01/05 01:50:57;;;;;;;30.8;14.35;;;;;;;-0.93;81.84082;94421.89;;;;
2021/01/05 01:51:59;;;;;;;30.8;14.35;;;;;;;-0.93;81.84082;94421.89;;;;
2021/01/05 01:53:01;;;;;;;33.9;15.7;;;;;;;-0.94;81.91406;94429.46;;;;
2021/01/05 01:58:24;;;;;;;33.9;15.7;;;;;;;-0.94;81.91406;94429.46;;;;
2021/01/05 01:59:39;;;;;;;33.9;15.7;;;;;;;-0.94;81.91406;94429.46;;;;
2021/01/05 02:00:57;;;;;;;33.9;15.7;;;;;;;-0.94;81.91406;94429.46;;;;
2021/01/05 02:02:11;;;;;;;33.9;15.7;;;;;;;-0.94;81.91406;94429.46;;;;
2021/01/05 02:03:16;;;;;;;33.9;15.7;;;;;;;-0.94;81.91406;94429.46;;;;
2021/01/05 02:04:36;;;;;;;31.75;13.7;;;;;;;-0.99;82.13281;94435.41;;;;
2021/01/05 02:05:46;;;;;;;31.75;13.7;;;;;;;-0.99;82.13281;94435.41;;;;
2021/01/05 02:07:04;;;;;;;31.75;13.7;;;;;;;-0.99;82.13281;94435.41;;;;
2021/01/05 02:08:17;;;;;;;31.75;13.7;;;;;;;-0.99;82.13281;94435.41;;;;
2021/01/05 02:09:29;;;;;;;31.75;13.7;;;;;;;-0.99;82.13281;94435.41;;;;
2021/01/05 02:10:45;;;;;;;31.75;13.7;;;;;;;-0.99;82.13281;94435.41;;;;
2021/01/05 02:11:54;;;;;;;31.75;13.7;;;;;;;-0.99;82.13281;94435.41;;;;
2021/01/05 02:13:05;;;;;;;31.75;13.7;;;;;;;-0.99;82.13281;94435.41;;;;
2021/01/05 02:14:21;;;;;;;27.15;13.05;;;;;;;-1.07;82.23145;94429.3;;;;
2021/01/05 02:15:42;;;;;;;27.15;13.05;;;;;;;-1.07;82.23145;94429.3;;;;
2021/01/05 02:16:54;;;;;;;27.15;13.05;;;;;;;-1.07;82.23145;94429.3;;;;
2021/01/05 02:22:00;;;;;;;27.15;13.05;;;;;;;-1.07;82.23145;94429.3;;;;
2021/01/05 02:23:11;;;;;;;27.15;13.05;;;;;;;-1.07;82.23145;94429.3;;;;
2021/01/05 02:24:33;;;;;;;27.15;13.05;;;;;;;-1.07;82.23145;94429.3;;;;
2021/01/05 02:25:42;;;;;;;33.5;14.15;;;;;;;-1.06;82.03711;94430.94;;;;
2021/01/05 02:26:52;;;;;;;33.5;14.15;;;;;;;-1.06;82.03711;94430.94;;;;
2021/01/05 02:27:59;;;;;;;33.5;14.15;;;;;;;-1.06;82.03711;94430.94;;;;
2021/01/05 02:29:04;;;;;;;33.5;14.15;;;;;;;-1.06;82.03711;94430.94;;;;
2021/01/05 02:30:10;;;;;;;33.5;14.15;;;;;;;-1.06;82.03711;94430.94;;;;
2021/01/05 02:31:17;;;;;;;33.5;14.15;;;;;;;-1.06;82.03711;94430.94;;;;
2021/01/05 02:32:40;;;;;;;33.5;14.15;;;;;;;-1.06;82.03711;94430.94;;;;
2021/01/05 02:33:45;;;;;;;33.5;14.15;;;;;;;-1.06;82.03711;94430.94;;;;
2021/01/05 02:34:53;;;;;;;33.5;14.15;;;;;;;-1.06;82.03711;94430.94;;;;
2021/01/05 02:36:20;;;;;;;32.8;14.6;;;;;;;-1.03;81.94922;94421.31;;;;
2021/01/05 02:37:41;;;;;;;32.8;14.6;;;;;;;-1.03;81.94922;94421.31;;;;
2021/01/05 02:38:56;;;;;;;32.8;14.6;;;;;;;-1.03;81.94922;94421.31;;;;
2021/01/05 02:40:14;;;;;;;32.8;14.6;;;;;;;-1.03;81.94922;94421.31;;;;
2021/01/05 02:41:29;;;;;;;32.8;14.6;;;;;;;-1.03;81.94922;94421.31;;;;
2021/01/05 02:42:43;;;;;;;32.8;14.6;;;;;;;-1.03;81.94922;94421.31;;;;
2021/01/05 02:45:00;;;;;;;32.8;14.6;;;;;;;-1.03;81.94922;94421.31;;;;
2021/01/05 02:46:10;;;;;;;32.7;15.4;;;;;;;-0.99;81.80957;94410.75;;;;
2021/01/05 02:47:24;;;;;;;32.7;15.4;;;;;;;-0.99;81.80957;94410.75;;;;
2021/01/05 02:49:09;;;;;;;32.7;15.4;;;;;;;-0.99;81.80957;94410.75;;;;
2021/01/05 02:50:21;;;;;;;32.7;15.4;;;;;;;-0.99;81.80957;94410.75;;;;
2021/01/05 02:51:38;;;;;;;32.7;15.4;;;;;;;-0.99;81.80957;94410.75;;;;
2021/01/05 02:57:13;;;;;;;31.55;14.55;;;;;;;-0.95;81.69141;94405.4;;;;
2021/01/05 02:58:29;;;;;;;31.55;14.55;;;;;;;-0.95;81.69141;94405.4;;;;
2021/01/05 03:00:13;;;;;;;31.55;14.55;;;;;;;-0.95;81.69141;94405.4;;;;
2021/01/05 03:05:23;;;;;;;31.55;14.55;;;;;;;-0.95;81.69141;94405.4;;;;
2021/01/05 03:06:23;;;;;;;31.55;14.55;;;;;;;-0.95;81.69141;94405.4;;;;
2021/01/05 03:07:32;;;;;;;33.74999;14.9;;;;;;;-0.96;81.63965;94405.89;;;;
2021/01/05 03:08:33;;;;;;;33.74999;14.9;;;;;;;-0.96;81.63965;94405.89;;;;
2021/01/05 03:09:44;;;;;;;33.74999;14.9;;;;;;;-0.96;81.63965;94405.89;;;;
2021/01/05 03:11:07;;;;;;;33.74999;14.9;;;;;;;-0.96;81.63965;94405.89;;;;
2021/01/05 03:12:15;;;;;;;33.74999;14.9;;;;;;;-0.96;81.63965;94405.89;;;;
2021/01/05 03:13:25;;;;;;;33.74999;14.9;;;;;;;-0.96;81.63965;94405.89;;;;
2021/01/05 03:14:45;;;;;;;33.74999;14.9;;;;;;;-0.96;81.63965;94405.89;;;;
2021/01/05 03:16:02;;;;;;;33.74999;14.9;;;;;;;-0.96;81.63965;94405.89;;;;
2021/01/05 03:17:07;;;;;;;33.74999;14.9;;;;;;;-0.96;81.63965;94405.89;;;;
2021/01/05 03:18:19;;;;;;;35.45;14.7;;;;;;;-0.97;81.58398;94407.4;;;;
2021/01/05 03:19:29;;;;;;;35.45;14.7;;;;;;;-0.97;81.58398;94407.4;;;;
2021/01/05 03:20:38;;;;;;;35.45;14.7;;;;;;;-0.97;81.58398;94407.4;;;;
2021/01/05 03:21:44;;;;;;;35.45;14.7;;;;;;;-0.97;81.58398;94407.4;;;;
2021/01/05 03:22:49;;;;;;;35.45;14.7;;;;;;;-0.97;81.58398;94407.4;;;;
2021/01/05 03:23:54;;;;;;;35.45;14.7;;;;;;;-0.97;81.58398;94407.4;;;;
2021/01/05 03:24:58;;;;;;;35.45;14.7;;;;;;;-0.97;81.58398;94407.4;;;;
2021/01/05 03:26:00;;;;;;;35.45;14.7;;;;;;;-0.97;81.58398;94407.4;;;;
2021/01/05 03:27:06;;;;;;;35.45;14.7;;;;;;;-0.97;81.58398;94407.4;;;;
2021/01/05 03:28:08;;;;;;;35.45;14.7;;;;;;;-0.97;81.58398;94407.4;;;;
2021/01/05 03:29:13;;;;;;;35.35;14.1;;;;;;;-1.09;81.63672;94409.22;;;;
2021/01/05 03:30:16;;;;;;;35.35;14.1;;;;;;;-1.09;81.63672;94409.22;;;;
2021/01/05 03:31:24;;;;;;;35.35;14.1;;;;;;;-1.09;81.63672;94409.22;;;;
2021/01/05 03:32:31;;;;;;;35.35;14.1;;;;;;;-1.09;81.63672;94409.22;;;;
2021/01/05 03:33:33;;;;;;;35.35;14.1;;;;;;;-1.09;81.63672;94409.22;;;;
2021/01/05 03:34:34;;;;;;;35.35;14.1;;;;;;;-1.09;81.63672;94409.22;;;;
2021/01/05 03:35:34;;;;;;;35.35;14.1;;;;;;;-1.09;81.63672;94409.22;;;;
2021/01/05 03:36:35;;;;;;;35.35;14.1;;;;;;;-1.09;81.63672;94409.22;;;;
2021/01/05 03:37:35;;;;;;;35.35;14.1;;;;;;;-1.09;81.63672;94409.22;;;;
2021/01/05 03:38:36;;;;;;;35.35;14.1;;;;;;;-1.09;81.63672;94409.22;;;;
2021/01/05 03:39:36;;;;;;;34.55;14.7;;;;;;;-1.18;81.88867;94403.72;;;;
2021/01/05 03:40:37;;;;;;;34.55;14.7;;;;;;;-1.18;81.88867;94403.72;;;;
2021/01/05 03:41:37;;;;;;;34.55;14.7;;;;;;;-1.18;81.88867;94403.72;;;;
2021/01/05 03:42:38;;;;;;;34.55;14.7;;;;;;;-1.18;81.88867;94403.72;;;;
2021/01/05 03:43:38;;;;;;;34.55;14.7;;;;;;;-1.18;81.88867;94403.72;;;;
2021/01/05 03:44:39;;;;;;;34.55;14.7;;;;;;;-1.18;81.88867;94403.72;;;;
2021/01/05 03:45:39;;;;;;;34.55;14.7;;;;;;;-1.18;81.88867;94403.72;;;;
2021/01/05 03:46:40;;;;;;;34.55;14.7;;;;;;;-1.18;81.88867;94403.72;;;;
2021/01/05 03:47:40;;;;;;;34.55;14.7;;;;;;;-1.18;81.88867;94403.72;;;;
2021/01/05 03:48:41;;;;;;;34.55;14.7;;;;;;;-1.18;81.88867;94403.72;;;;
2021/01/05 03:49:41;;;;;;;34.55;14.7;;;;;;;-1.18;81.88867;94403.72;;;;
2021/01/05 03:50:42;;;;;;;31.35;14;;;;;;;-1.2;81.9668;94414.17;;;;
2021/01/05 03:51:42;;;;;;;31.35;14;;;;;;;-1.2;81.9668;94414.17;;;;
2021/01/05 03:52:43;;;;;;;31.35;14;;;;;;;-1.2;81.9668;94414.17;;;;
2021/01/05 03:53:44;;;;;;;31.35;14;;;;;;;-1.2;81.9668;94414.17;;;;
2021/01/05 03:54:44;;;;;;;31.35;14;;;;;;;-1.2;81.9668;94414.17;;;;
2021/01/05 03:55:45;;;;;;;31.35;14;;;;;;;-1.2;81.9668;94414.17;;;;
2021/01/05 03:56:45;;;;;;;31.35;14;;;;;;;-1.2;81.9668;94414.17;;;;
2021/01/05 03:57:46;;;;;;;31.35;14;;;;;;;-1.2;81.9668;94414.17;;;;
2021/01/05 03:58:46;;;;;;;31.35;14;;;;;;;-1.2;81.9668;94414.17;;;;
2021/01/05 03:59:47;;;;;;;31.35;14;;;;;;;-1.2;81.9668;94414.17;;;;
2021/01/05 04:00:47;;;;;;;31.35;14;;;;;;;-1.2;81.9668;94414.17;;;;
2021/01/05 04:01:48;;;;;;;29.45;13.05;;;;;;;-1.24;81.92969;94402.71;;;;
2021/01/05 04:02:50;;;;;;;29.45;13.05;;;;;;;-1.24;81.92969;94402.71;;;;
2021/01/05 04:03:51;;;;;;;29.45;13.05;;;;;;;-1.24;81.92969;94402.71;;;;
2021/01/05 04:04:51;;;;;;;29.45;13.05;;;;;;;-1.24;81.92969;94402.71;;;;
2021/01/05 04:05:53;;;;;;;29.45;13.05;;;;;;;-1.24;81.92969;94402.71;;;;
2021/01/05 04:06:53;;;;;;;29.45;13.05;;;;;;;-1.24;81.92969;94402.71;;;;
2021/01/05 04:07:54;;;;;;;29.45;13.05;;;;;;;-1.24;81.92969;94402.71;;;;
2021/01/05 04:08:54;;;;;;;29.45;13.05;;;;;;;-1.24;81.92969;94402.71;;;;
2021/01/05 04:09:55;;;;;;;29.45;13.05;;;;;;;-1.24;81.92969;94402.71;;;;
2021/01/05 04:10:55;;;;;;;29.45;13.05;;;;;;;-1.24;81.92969;94402.71;;;;
2021/01/05 04:11:56;;;;;;;30.05;12.65;;;;;;;-1.26;82.19629;94403.81;;;;
2021/01/05 04:12:56;;;;;;;30.05;12.65;;;;;;;-1.26;82.19629;94403.81;;;;
2021/01/05 04:13:57;;;;;;;30.05;12.65;;;;;;;-1.26;82.19629;94403.81;;;;
2021/01/05 04:14:57;;;;;;;30.05;12.65;;;;;;;-1.26;82.19629;94403.81;;;;
2021/01/05 04:15:58;;;;;;;30.05;12.65;;;;;;;-1.26;82.19629;94403.81;;;;
2021/01/05 04:16:59;;;;;;;30.05;12.65;;;;;;;-1.26;82.19629;94403.81;;;;
2021/01/05 04:17:59;;;;;;;30.05;12.65;;;;;;;-1.26;82.19629;94403.81;;;;
2021/01/05 04:19:00;;;;;;;30.05;12.65;;;;;;;-1.26;82.19629;94403.81;;;;
2021/01/05 04:20:01;;;;;;;30.05;12.65;;;;;;;-1.26;82.19629;94403.81;;;;
2021/01/05 04:21:04;;;;;;;30.05;12.65;;;;;;;-1.26;82.19629;94403.81;;;;
2021/01/05 04:22:04;;;;;;;30.05;12.65;;;;;;;-1.26;82.19629;94403.81;;;;
2021/01/05 04:23:05;;;;;;;29.35;12.9;;;;;;;-1.24;82.2002;94417.27;;;;
2021/01/05 04:24:05;;;;;;;29.35;12.9;;;;;;;-1.24;82.2002;94417.27;;;;
2021/01/05 04:25:06;;;;;;;29.35;12.9;;;;;;;-1.24;82.2002;94417.27;;;;
2021/01/05 04:26:08;;;;;;;29.35;12.9;;;;;;;-1.24;82.2002;94417.27;;;;
2021/01/05 04:27:09;;;;;;;29.35;12.9;;;;;;;-1.24;82.2002;94417.27;;;;
2021/01/05 04:28:10;;;;;;;29.35;12.9;;;;;;;-1.24;82.2002;94417.27;;;;
2021/01/05 04:29:11;;;;;;;29.35;12.9;;;;;;;-1.24;82.2002;94417.27;;;;
2021/01/05 04:30:11;;;;;;;29.35;12.9;;;;;;;-1.24;82.2002;94417.27;;;;
2021/01/05 04:31:19;;;;;;;29.35;12.9;;;;;;;-1.24;82.2002;94417.27;;;;
2021/01/05 04:32:19;;;;;;;29.35;12.9;;;;;;;-1.24;82.2002;94417.27;;;;
2021/01/05 04:33:20;;;;;;;28.3;12.25;;;;;;;-1.22;82.29492;94414.84;;;;
2021/01/05 04:34:20;;;;;;;28.3;12.25;;;;;;;-1.22;82.29492;94414.84;;;;
2021/01/05 04:35:21;;;;;;;28.3;12.25;;;;;;;-1.22;82.29492;94414.84;;;;
2021/01/05 04:36:24;;;;;;;28.3;12.25;;;;;;;-1.22;82.29492;94414.84;;;;
2021/01/05 04:37:24;;;;;;;28.3;12.25;;;;;;;-1.22;82.29492;94414.84;;;;
2021/01/05 04:38:25;;;;;;;28.3;12.25;;;;;;;-1.22;82.29492;94414.84;;;;
2021/01/05 04:39:25;;;;;;;28.3;12.25;;;;;;;-1.22;82.29492;94414.84;;;;
2021/01/05 04:40:26;;;;;;;28.3;12.25;;;;;;;-1.22;82.29492;94414.84;;;;
2021/01/05 04:41:31;;;;;;;28.3;12.25;;;;;;;-1.22;82.29492;94414.84;;;;
2021/01/05 04:42:37;;;;;;;28.3;12.25;;;;;;;-1.22;82.29492;94414.84;;;;
2021/01/05 04:43:41;;;;;;;28.65;12.9;;;;;;;-1.23;82.10645;94424.24;;;;
2021/01/05 04:44:47;;;;;;;28.65;12.9;;;;;;;-1.23;82.10645;94424.24;;;;
2021/01/05 04:45:56;;;;;;;28.65;12.9;;;;;;;-1.23;82.10645;94424.24;;;;
2021/01/05 04:47:14;;;;;;;28.65;12.9;;;;;;;-1.23;82.10645;94424.24;;;;
2021/01/05 04:48:23;;;;;;;28.65;12.9;;;;;;;-1.23;82.10645;94424.24;;;;
2021/01/05 04:49:33;;;;;;;28.65;12.9;;;;;;;-1.23;82.10645;94424.24;;;;
2021/01/05 04:50:56;;;;;;;28.65;12.9;;;;;;;-1.23;82.10645;94424.24;;;;
2021/01/05 04:52:01;;;;;;;28.65;12.9;;;;;;;-1.23;82.10645;94424.24;;;;
2021/01/05 04:53:06;;;;;;;28.65;12.9;;;;;;;-1.23;82.10645;94424.24;;;;
2021/01/05 04:54:17;;;;;;;29.75;12.7;;;;;;;-1.26;82.04102;94432.51;;;;
2021/01/05 04:55:22;;;;;;;29.75;12.7;;;;;;;-1.26;82.04102;94432.51;;;;
2021/01/05 04:56:40;;;;;;;29.75;12.7;;;;;;;-1.26;82.04102;94432.51;;;;
2021/01/05 04:57:54;;;;;;;29.75;12.7;;;;;;;-1.26;82.04102;94432.51;;;;
2021/01/05 04:59:06;;;;;;;29.75;12.7;;;;;;;-1.26;82.04102;94432.51;;;;
2021/01/05 05:00:11;;;;;;;29.75;12.7;;;;;;;-1.26;82.04102;94432.51;;;;
2021/01/05 05:01:22;;;;;;;29.75;12.7;;;;;;;-1.26;82.04102;94432.51;;;;
2021/01/05 05:02:25;;;;;;;29.75;12.7;;;;;;;-1.26;82.04102;94432.51;;;;
2021/01/05 05:03:43;;;;;;;29.75;12.7;;;;;;;-1.26;82.04102;94432.51;;;;
2021/01/05 05:04:55;;;;;;;27.09999;12.05;;;;;;;-1.28;81.95215;94431.5;;;;
2021/01/05 05:05:59;;;;;;;27.09999;12.05;;;;;;;-1.28;81.95215;94431.5;;;;
2021/01/05 05:07:13;;;;;;;27.09999;12.05;;;;;;;-1.28;81.95215;94431.5;;;;
2021/01/05 05:08:24;;;;;;;27.09999;12.05;;;;;;;-1.28;81.95215;94431.5;;;;
2021/01/05 05:09:39;;;;;;;27.09999;12.05;;;;;;;-1.28;81.95215;94431.5;;;;
2021/01/05 05:10:49;;;;;;;27.09999;12.05;;;;;;;-1.28;81.95215;94431.5;;;;
2021/01/05 05:11:54;;;;;;;27.09999;12.05;;;;;;;-1.28;81.95215;94431.5;;;;
2021/01/05 05:13:04;;;;;;;27.09999;12.05;;;;;;;-1.28;81.95215;94431.5;;;;
2021/01/05 05:14:14;;;;;;;27.09999;12.05;;;;;;;-1.28;81.95215;94431.5;;;;
2021/01/05 05:15:28;;;;;;;27.09999;12.05;;;;;;;-1.28;81.95215;94431.5;;;;
2021/01/05 05:16:38;;;;;;;30.25;12.75;;;;;;;-1.31;81.93848;94423.41;;;;
2021/01/05 05:17:56;;;;;;;30.25;12.75;;;;;;;-1.31;81.93848;94423.41;;;;
2021/01/05 05:19:06;;;;;;;30.25;12.75;;;;;;;-1.31;81.93848;94423.41;;;;
2021/01/05 05:20:20;;;;;;;30.25;12.75;;;;;;;-1.31;81.93848;94423.41;;;;
2021/01/05 05:21:32;;;;;;;30.25;12.75;;;;;;;-1.31;81.93848;94423.41;;;;
2021/01/05 05:22:38;;;;;;;30.25;12.75;;;;;;;-1.31;81.93848;94423.41;;;;
2021/01/05 05:23:51;;;;;;;30.25;12.75;;;;;;;-1.31;81.93848;94423.41;;;;
2021/01/05 05:25:12;;;;;;;30.25;12.75;;;;;;;-1.31;81.93848;94423.41;;;;
2021/01/05 05:26:16;;;;;;;29.7;13.05;;;;;;;-1.3;82.09375;94437.48;;;;
2021/01/05 05:27:25;;;;;;;29.7;13.05;;;;;;;-1.3;82.09375;94437.48;;;;
2021/01/05 05:28:34;;;;;;;29.7;13.05;;;;;;;-1.3;82.09375;94437.48;;;;
2021/01/05 05:29:44;;;;;;;29.7;13.05;;;;;;;-1.3;82.09375;94437.48;;;;
2021/01/05 05:30:47;;;;;;;29.7;13.05;;;;;;;-1.3;82.09375;94437.48;;;;
2021/01/05 05:31:48;;;;;;;29.7;13.05;;;;;;;-1.3;82.09375;94437.48;;;;
2021/01/05 05:32:50;;;;;;;29.7;13.05;;;;;;;-1.3;82.09375;94437.48;;;;
2021/01/05 05:33:54;;;;;;;29.7;13.05;;;;;;;-1.3;82.09375;94437.48;;;;
2021/01/05 05:34:59;;;;;;;29.7;13.05;;;;;;;-1.3;82.09375;94437.48;;;;
2021/01/05 05:36:36;;;;;;;29.7;13.05;;;;;;;-1.3;82.09375;94437.48;;;;
2021/01/05 05:37:52;;;;;;;33.75;14.1;;;;;;;-1.29;82.14746;94443.08;;;;
2021/01/05 05:39:00;;;;;;;33.75;14.1;;;;;;;-1.29;82.14746;94443.08;;;;
2021/01/05 05:40:19;;;;;;;33.75;14.1;;;;;;;-1.29;82.14746;94443.08;;;;
2021/01/05 05:41:29;;;;;;;33.75;14.1;;;;;;;-1.29;82.14746;94443.08;;;;
2021/01/05 05:42:43;;;;;;;33.75;14.1;;;;;;;-1.29;82.14746;94443.08;;;;
2021/01/05 05:45:04;;;;;;;33.75;14.1;;;;;;;-1.29;82.14746;94443.08;;;;
2021/01/05 05:46:09;;;;;;;33.75;14.1;;;;;;;-1.29;82.14746;94443.08;;;;
2021/01/05 05:47:19;;;;;;;33.75;14.1;;;;;;;-1.29;82.14746;94443.08;;;;
2021/01/05 05:48:26;;;;;;;34.25;14.05;;;;;;;-1.27;82.16113;94449.02;;;;
2021/01/05 05:49:37;;;;;;;34.25;14.05;;;;;;;-1.27;82.16113;94449.02;;;;
2021/01/05 05:50:49;;;;;;;34.25;14.05;;;;;;;-1.27;82.16113;94449.02;;;;
2021/01/05 05:52:01;;;;;;;34.25;14.05;;;;;;;-1.27;82.16113;94449.02;;;;
2021/01/05 05:53:12;;;;;;;34.25;14.05;;;;;;;-1.27;82.16113;94449.02;;;;
2021/01/05 05:54:18;;;;;;;34.25;14.05;;;;;;;-1.27;82.16113;94449.02;;;;
2021/01/05 05:55:21;;;;;;;34.25;14.05;;;;;;;-1.27;82.16113;94449.02;;;;
2021/01/05 05:56:30;;;;;;;34.25;14.05;;;;;;;-1.27;82.16113;94449.02;;;;
2021/01/05 05:57:46;;;;;;;34.25;14.05;;;;;;;-1.27;82.16113;94449.02;;;;
2021/01/05 05:58:52;;;;;;;31.1;13.9;;;;;;;-1.17;82.05664;94458.83;;;;
2021/01/05 05:59:56;;;;;;;31.1;13.9;;;;;;;-1.17;82.05664;94458.83;;;;
2021/01/05 06:01:06;;;;;;;31.1;13.9;;;;;;;-1.17;82.05664;94458.83;;;;
2021/01/05 06:02:11;;;;;;;31.1;13.9;;;;;;;-1.17;82.05664;94458.83;;;;
2021/01/05 06:03:15;;;;;;;31.1;13.9;;;;;;;-1.17;82.05664;94458.83;;;;
2021/01/05 06:04:18;;;;;;;31.1;13.9;;;;;;;-1.17;82.05664;94458.83;;;;
2021/01/05 06:05:21;;;;;;;31.1;13.9;;;;;;;-1.17;82.05664;94458.83;;;;
2021/01/05 06:06:27;;;;;;;31.1;13.9;;;;;;;-1.17;82.05664;94458.83;;;;
2021/01/05 06:07:28;;;;;;;31.1;13.9;;;;;;;-1.17;82.05664;94458.83;;;;
2021/01/05 06:08:29;;;;;;;31.1;13.9;;;;;;;-1.17;82.05664;94458.83;;;;
2021/01/05 06:09:29;;;;;;;35.55;14.8;;;;;;;-1.13;81.77539;94464.88;;;;
2021/01/05 06:10:29;;;;;;;35.55;14.8;;;;;;;-1.13;81.77539;94464.88;;;;
2021/01/05 06:11:33;;;;;;;35.55;14.8;;;;;;;-1.13;81.77539;94464.88;;;;
2021/01/05 06:12:34;;;;;;;35.55;14.8;;;;;;;-1.13;81.77539;94464.88;;;;
2021/01/05 06:13:34;;;;;;;35.55;14.8;;;;;;;-1.13;81.77539;94464.88;;;;
2021/01/05 06:14:34;;;;;;;35.55;14.8;;;;;;;-1.13;81.77539;94464.88;;;;
2021/01/05 06:15:35;;;;;;;35.55;14.8;;;;;;;-1.13;81.77539;94464.88;;;;
2021/01/05 06:16:35;;;;;;;35.55;14.8;;;;;;;-1.13;81.77539;94464.88;;;;
2021/01/05 06:17:36;;;;;;;35.55;14.8;;;;;;;-1.13;81.77539;94464.88;;;;
2021/01/05 06:18:36;;;;;;;35.55;14.8;;;;;;;-1.13;81.77539;94464.88;;;;
2021/01/05 06:19:37;;;;;;;35.55;14.8;;;;;;;-1.13;81.77539;94464.88;;;;
2021/01/05 06:20:38;;;;;;;34.65001;14.9;;;;;;;-1.09;81.83301;94469.31;;;;
2021/01/05 06:21:38;;;;;;;34.65001;14.9;;;;;;;-1.09;81.83301;94469.31;;;;